Zenith Leader — 2ACU6 — position and weather

sailwx.info

Track history (hours):
 
Tides and Currents Weather Stations Pressure Air Temp Water Temp Dewpoint Dewpoint Depression Visibility Wind Speed Wind Dir Waves Ship Positions

Zenith Leader

Last reported at 2014-Sep-08 04:14 UTC. Time now 2014-Sep-19 03:51 UTC.
Position N 34°59' E 023°12'.
Warning: this ship's position is 10 days out of date.

Length 199 m; draft 9.1 m.

Type: Cargo ship. MMSI: 235058697.

Date/timePositionNaut miles runAvg speedWind from/ knotsBaromVisibWave heightAir tempDewpointWater temp
2014-Sep-08 04:14N 34°59' E 023°12'76015.5
2014-Sep-06 03:13N 42°16' E 009°55'1416.2
2014-Sep-06 02:21N 42°29' E 009°49'2916.3
2014-Sep-06 00:33N 42°57' E 009°37'1615.8
2014-Sep-05 23:34N 43°12' E 009°30'1716.9
2014-Sep-05 22:33N 43°26' E 009°18'1716.5
2014-Sep-05 21:33N 43°40' E 009°06'1616.2
2014-Sep-05 20:33N 43°54' E 008°53'1616.4
2014-Sep-05 19:34N 44°08' E 008°41'1313.2
2014-Sep-05 18:33N 44°19' E 008°31'1 0.6
2014-Sep-05 17:32N 44°19' E 008°30'0 0.0
2014-Sep-05 16:29N 44°19' E 008°30'0 0.0
2014-Sep-05 15:32N 44°19' E 008°30'0 0.0
2014-Sep-05 14:32N 44°19' E 008°30'0 0.0
2014-Sep-05 13:32N 44°19' E 008°30'0 0.0
2014-Sep-05 12:32N 44°19' E 008°30'0 0.0
2014-Sep-05 11:32N 44°19' E 008°30'0 0.0
2014-Sep-05 10:32N 44°19' E 008°30'0 0.0
2014-Sep-05 09:32N 44°19' E 008°30'0 0.0
2014-Sep-05 08:32N 44°19' E 008°30'0 0.0
2014-Sep-05 07:32N 44°19' E 008°30'0 0.0
2014-Sep-05 06:32N 44°19' E 008°30'0 0.0
2014-Sep-05 05:32N 44°19' E 008°30'0 0.0
2014-Sep-05 04:32N 44°19' E 008°30'0 0.2
2014-Sep-05 03:33N 44°19' E 008°30'4 3.6
2014-Sep-05 02:33N 44°15' E 008°31'1110.6
2014-Sep-05 01:33N 44°05' E 008°27'1414.2
2014-Sep-05 00:33N 43°52' E 008°21'1413.6
2014-Sep-04 23:33N 43°42' E 008°09'1413.6
2014-Sep-04 22:33N 43°33' E 007°54'1313.4
2014-Sep-04 21:33N 43°24' E 007°40'1313.0
2014-Sep-04 20:32N 43°15' E 007°27'1313.0
2014-Sep-04 19:33N 43°06' E 007°14'1313.2
2014-Sep-04 18:33N 42°58' E 007°00'1313.4
2014-Sep-04 17:33N 42°49' E 006°46'1313.3
2014-Sep-04 16:33N 42°40' E 006°33'1313.2
2014-Sep-04 15:33N 42°32' E 006°20'1313.3
2014-Sep-04 14:33N 42°23' E 006°06'1514.8
2014-Sep-04 13:32N 42°13' E 005°50'1616.5
2014-Sep-04 12:33N 42°03' E 005°33'1616.1
2014-Sep-04 11:33N 41°53' E 005°17'1716.0
2014-Sep-04 10:28N 41°41' E 004°59'1915.9
2014-Sep-04 09:18N 41°29' E 004°41'1416.1
2014-Sep-04 08:27N 41°20' E 004°27'1516.4
2014-Sep-04 07:31N 41°10' E 004°12'1616.5
2014-Sep-04 06:32N 40°59' E 003°56'2320.9
2014-Sep-04 05:26N 40°44' E 003°32'6515.0
2014-Sep-04 01:05N 40°01' E 002°27'1416.6
2014-Sep-04 00:13N 39°52' E 002°13'3616.6
2014-Sep-03 22:04N 39°28' E 001°38'3216.6
2014-Sep-03 20:08N 39°07' E 001°07'2916.5
2014-Sep-03 18:23N 38°49' E 000°39'1416.4
2014-Sep-03 17:33N 38°39' E 000°26'1616.3
2014-Sep-03 16:33N 38°26' E 000°14'1616.4
2014-Sep-03 15:33N 38°12' E 000°02'1616.1
2014-Sep-03 14:33N 37°59' W 000°09'1716.2
2014-Sep-03 13:32N 37°45' W 000°21'1615.9
2014-Sep-03 12:32N 37°32' W 000°32'1816.0
2014-Sep-03 11:26N 37°20' W 000°48'3415.9
2014-Sep-03 09:19N 36°58' W 001°20'1215.8
2014-Sep-03 08:33N 36°50' W 001°31'1715.9
2014-Sep-03 07:29N 36°39' W 001°47'1915.8
2014-Sep-03 06:19N 36°26' W 002°04'1315.7
2014-Sep-03 05:31N 36°21' W 002°18'14317.4
2014-Sep-02 21:18N 35°59' W 005°13'3217.9
2014-Sep-02 19:32N 35°54' W 005°52'1716.9
2014-Sep-02 18:32N 35°55' W 006°13'1716.6
2014-Sep-02 17:31N 35°57' W 006°33'1616.3
2014-Sep-02 16:33N 36°02' W 006°52'1716.7
2014-Sep-02 15:32N 36°05' W 007°12'1616.6
2014-Sep-02 14:33N 36°10' W 007°32'1716.6
2014-Sep-02 13:33N 36°14' W 007°52'1716.3
2014-Sep-02 12:29N 36°19' W 008°13'1516.1
2014-Sep-02 11:33N 36°23' W 008°30'1616.2
2014-Sep-02 10:33N 36°27' W 008°50'1816.7
2014-Sep-02 09:30N 36°32' W 009°11'1617.0
2014-Sep-02 08:32N 36°42' W 009°27'1715.8
2014-Sep-02 07:28N 36°56' W 009°37'1516.2
2014-Sep-02 06:33N 37°11' W 009°41'1616.6
2014-Sep-02 05:33N 37°27' W 009°44'1616.3
2014-Sep-02 04:34N 37°43' W 009°49'2216.5
2014-Sep-02 03:13N 38°05' W 009°55'1116.3
2014-Sep-02 02:33N 38°15' W 009°58'3316.3
2014-Sep-02 00:30N 38°48' W 010°06'30816.1
2014-Sep-01 05:20N 43°56' W 009°40'1315.6
2014-Sep-01 04:31N 44°07' W 009°31'1515.7
2014-Sep-01 03:32N 44°20' W 009°19'26116.2
2014-Aug-31 11:25N 48°11' W 006°23'1517.3
2014-Aug-31 10:32N 48°25' W 006°13'2219.0
2014-Aug-31 09:23N 48°44' W 005°58'3015.5
2014-Aug-31 07:28N 49°03' W 005°23'17015.0
2014-Aug-30 20:07N 50°26' W 001°34'915.2
2014-Aug-30 19:33N 50°29' W 001°21'1515.5
2014-Aug-30 18:33N 50°37' W 001°00'9 9.3
2014-Aug-30 17:33N 50°45' W 001°07'10 9.5
2014-Aug-30 16:33N 50°50' W 001°19'4 4.0
2014-Aug-30 15:32N 50°53' W 001°24'0 0.0
2014-Aug-30 14:32N 50°53' W 001°24'0 0.0
2014-Aug-30 13:32N 50°53' W 001°24'0 0.0
2014-Aug-30 12:32N 50°53' W 001°24'0 0.0
2014-Aug-30 11:32N 50°53' W 001°24'0 0.0
2014-Aug-30 10:32N 50°53' W 001°24'0 0.0
2014-Aug-30 09:32N 50°53' W 001°24'1 0.8
2014-Aug-30 08:34N 50°53' W 001°23'7 7.1
2014-Aug-30 07:34N 50°47' W 001°17'1211.6
2014-Aug-30 06:34N 50°43' W 000°60'7 6.6
2014-Aug-30 05:33N 50°39' W 000°52'1110.6
2014-Aug-30 04:33N 50°36' W 000°36'1615.9
2014-Aug-30 03:33N 50°33' W 000°11'1815.2
2014-Aug-30 02:24N 50°32' E 000°16'1214.7
2014-Aug-30 01:33N 50°36' E 000°35'1413.9
2014-Aug-30 00:33N 50°45' E 000°52'1413.8
2014-Aug-29 23:33N 50°54' E 001°09'1515.3
2014-Aug-29 22:33N 51°04' E 001°26'1717.1
2014-Aug-29 21:33N 51°16' E 001°46'1716.6
2014-Aug-29 20:34N 51°29' E 002°02'1515.5
2014-Aug-29 19:34N 51°41' E 002°19'4814.0
2014-Aug-29 16:08N 52°18' E 003°08'2213.8
2014-Aug-29 14:32N 52°36' E 003°28'1515.3
2014-Aug-29 13:33N 52°48' E 003°42'1615.7
2014-Aug-29 12:34N 52°60' E 004°01'1716.6
2014-Aug-29 11:33N 53°09' E 004°23'1615.5
2014-Aug-29 10:32N 53°24' E 004°34'1413.9
2014-Aug-29 09:34N 53°32' E 004°51'1413.9
2014-Aug-29 08:33N 53°37' E 005°14'1413.6
2014-Aug-29 07:31N 53°41' E 005°36'1814.8
2014-Aug-29 06:20N 53°47' E 006°04'1416.0
2014-Aug-29 05:29N 53°51' E 006°27'  
Track history (hours):
 
Tides and Currents Weather Stations Pressure Air Temp Water Temp Dewpoint Dewpoint Depression Visibility Wind Speed Wind Dir Waves Ship Positions

Zenith Leader

Last reported at 2014-Sep-08 04:14 UTC. Time now 2014-Sep-19 03:51 UTC.
Position N 34°59' E 023°12'.
Warning: this ship's position is 10 days out of date.

Length 199 m; draft 9.1 m.

Type: Cargo ship. MMSI: 235058697.

Date/timePositionNaut miles runAvg speedWind from/ knotsBaromVisibWave heightAir tempDewpointWater temp
2014-Sep-08 04:14N 34°59' E 023°12'76015.5
2014-Sep-06 03:13N 42°16' E 009°55'1416.2
2014-Sep-06 02:21N 42°29' E 009°49'2916.3
2014-Sep-06 00:33N 42°57' E 009°37'1615.8
2014-Sep-05 23:34N 43°12' E 009°30'1716.9
2014-Sep-05 22:33N 43°26' E 009°18'1716.5
2014-Sep-05 21:33N 43°40' E 009°06'1616.2
2014-Sep-05 20:33N 43°54' E 008°53'1616.4
2014-Sep-05 19:34N 44°08' E 008°41'1313.2
2014-Sep-05 18:33N 44°19' E 008°31'1 0.6
2014-Sep-05 17:32N 44°19' E 008°30'0 0.0
2014-Sep-05 16:29N 44°19' E 008°30'0 0.0
2014-Sep-05 15:32N 44°19' E 008°30'0 0.0
2014-Sep-05 14:32N 44°19' E 008°30'0 0.0
2014-Sep-05 13:32N 44°19' E 008°30'0 0.0
2014-Sep-05 12:32N 44°19' E 008°30'0 0.0
2014-Sep-05 11:32N 44°19' E 008°30'0 0.0
2014-Sep-05 10:32N 44°19' E 008°30'0 0.0
2014-Sep-05 09:32N 44°19' E 008°30'0 0.0
2014-Sep-05 08:32N 44°19' E 008°30'0 0.0
2014-Sep-05 07:32N 44°19' E 008°30'0 0.0
2014-Sep-05 06:32N 44°19' E 008°30'0 0.0
2014-Sep-05 05:32N 44°19' E 008°30'0 0.0
2014-Sep-05 04:32N 44°19' E 008°30'0 0.2
2014-Sep-05 03:33N 44°19' E 008°30'4 3.6
2014-Sep-05 02:33N 44°15' E 008°31'1110.6
2014-Sep-05 01:33N 44°05' E 008°27'1414.2
2014-Sep-05 00:33N 43°52' E 008°21'1413.6
2014-Sep-04 23:33N 43°42' E 008°09'1413.6
2014-Sep-04 22:33N 43°33' E 007°54'1313.4
2014-Sep-04 21:33N 43°24' E 007°40'1313.0
2014-Sep-04 20:32N 43°15' E 007°27'1313.0
2014-Sep-04 19:33N 43°06' E 007°14'1313.2
2014-Sep-04 18:33N 42°58' E 007°00'1313.4
2014-Sep-04 17:33N 42°49' E 006°46'1313.3
2014-Sep-04 16:33N 42°40' E 006°33'1313.2
2014-Sep-04 15:33N 42°32' E 006°20'1313.3
2014-Sep-04 14:33N 42°23' E 006°06'1514.8
2014-Sep-04 13:32N 42°13' E 005°50'1616.5
2014-Sep-04 12:33N 42°03' E 005°33'1616.1
2014-Sep-04 11:33N 41°53' E 005°17'1716.0
2014-Sep-04 10:28N 41°41' E 004°59'1915.9
2014-Sep-04 09:18N 41°29' E 004°41'1416.1
2014-Sep-04 08:27N 41°20' E 004°27'1516.4
2014-Sep-04 07:31N 41°10' E 004°12'1616.5
2014-Sep-04 06:32N 40°59' E 003°56'2320.9
2014-Sep-04 05:26N 40°44' E 003°32'6515.0
2014-Sep-04 01:05N 40°01' E 002°27'1416.6
2014-Sep-04 00:13N 39°52' E 002°13'3616.6
2014-Sep-03 22:04N 39°28' E 001°38'3216.6
2014-Sep-03 20:08N 39°07' E 001°07'2916.5
2014-Sep-03 18:23N 38°49' E 000°39'1416.4
2014-Sep-03 17:33N 38°39' E 000°26'1616.3
2014-Sep-03 16:33N 38°26' E 000°14'1616.4
2014-Sep-03 15:33N 38°12' E 000°02'1616.1
2014-Sep-03 14:33N 37°59' W 000°09'1716.2
2014-Sep-03 13:32N 37°45' W 000°21'1615.9
2014-Sep-03 12:32N 37°32' W 000°32'1816.0
2014-Sep-03 11:26N 37°20' W 000°48'3415.9
2014-Sep-03 09:19N 36°58' W 001°20'1215.8
2014-Sep-03 08:33N 36°50' W 001°31'1715.9
2014-Sep-03 07:29N 36°39' W 001°47'1915.8
2014-Sep-03 06:19N 36°26' W 002°04'1315.7
2014-Sep-03 05:31N 36°21' W 002°18'14317.4
2014-Sep-02 21:18N 35°59' W 005°13'3217.9
2014-Sep-02 19:32N 35°54' W 005°52'1716.9
2014-Sep-02 18:32N 35°55' W 006°13'1716.6
2014-Sep-02 17:31N 35°57' W 006°33'1616.3
2014-Sep-02 16:33N 36°02' W 006°52'1716.7
2014-Sep-02 15:32N 36°05' W 007°12'1616.6
2014-Sep-02 14:33N 36°10' W 007°32'1716.6
2014-Sep-02 13:33N 36°14' W 007°52'1716.3
2014-Sep-02 12:29N 36°19' W 008°13'1516.1
2014-Sep-02 11:33N 36°23' W 008°30'1616.2
2014-Sep-02 10:33N 36°27' W 008°50'1816.7
2014-Sep-02 09:30N 36°32' W 009°11'1617.0
2014-Sep-02 08:32N 36°42' W 009°27'1715.8
2014-Sep-02 07:28N 36°56' W 009°37'1516.2
2014-Sep-02 06:33N 37°11' W 009°41'1616.6
2014-Sep-02 05:33N 37°27' W 009°44'1616.3
2014-Sep-02 04:34N 37°43' W 009°49'2216.5
2014-Sep-02 03:13N 38°05' W 009°55'1116.3
2014-Sep-02 02:33N 38°15' W 009°58'3316.3
2014-Sep-02 00:30N 38°48' W 010°06'30816.1
2014-Sep-01 05:20N 43°56' W 009°40'1315.6
2014-Sep-01 04:31N 44°07' W 009°31'1515.7
2014-Sep-01 03:32N 44°20' W 009°19'26116.2
2014-Aug-31 11:25N 48°11' W 006°23'1517.3
2014-Aug-31 10:32N 48°25' W 006°13'2219.0
2014-Aug-31 09:23N 48°44' W 005°58'3015.5
2014-Aug-31 07:28N 49°03' W 005°23'17015.0
2014-Aug-30 20:07N 50°26' W 001°34'915.2
2014-Aug-30 19:33N 50°29' W 001°21'1515.5
2014-Aug-30 18:33N 50°37' W 001°00'9 9.3
2014-Aug-30 17:33N 50°45' W 001°07'10 9.5
2014-Aug-30 16:33N 50°50' W 001°19'4 4.0
2014-Aug-30 15:32N 50°53' W 001°24'0 0.0
2014-Aug-30 14:32N 50°53' W 001°24'0 0.0
2014-Aug-30 13:32N 50°53' W 001°24'0 0.0
2014-Aug-30 12:32N 50°53' W 001°24'0 0.0
2014-Aug-30 11:32N 50°53' W 001°24'0 0.0
2014-Aug-30 10:32N 50°53' W 001°24'0 0.0
2014-Aug-30 09:32N 50°53' W 001°24'1 0.8
2014-Aug-30 08:34N 50°53' W 001°23'7 7.1
2014-Aug-30 07:34N 50°47' W 001°17'1211.6
2014-Aug-30 06:34N 50°43' W 000°60'7 6.6
2014-Aug-30 05:33N 50°39' W 000°52'1110.6
2014-Aug-30 04:33N 50°36' W 000°36'1615.9
2014-Aug-30 03:33N 50°33' W 000°11'1815.2
2014-Aug-30 02:24N 50°32' E 000°16'1214.7
2014-Aug-30 01:33N 50°36' E 000°35'1413.9
2014-Aug-30 00:33N 50°45' E 000°52'1413.8
2014-Aug-29 23:33N 50°54' E 001°09'1515.3
2014-Aug-29 22:33N 51°04' E 001°26'1717.1
2014-Aug-29 21:33N 51°16' E 001°46'1716.6
2014-Aug-29 20:34N 51°29' E 002°02'1515.5
2014-Aug-29 19:34N 51°41' E 002°19'4814.0
2014-Aug-29 16:08N 52°18' E 003°08'2213.8
2014-Aug-29 14:32N 52°36' E 003°28'1515.3
2014-Aug-29 13:33N 52°48' E 003°42'1615.7
2014-Aug-29 12:34N 52°60' E 004°01'1716.6
2014-Aug-29 11:33N 53°09' E 004°23'1615.5
2014-Aug-29 10:32N 53°24' E 004°34'1413.9
2014-Aug-29 09:34N 53°32' E 004°51'1413.9
2014-Aug-29 08:33N 53°37' E 005°14'1413.6
2014-Aug-29 07:31N 53°41' E 005°36'1814.8
2014-Aug-29 06:20N 53°47' E 006°04'1416.0
2014-Aug-29 05:29N 53°51' E 006°27'  

Dump ship's entire track history